createdAt,value
2023-12-28T00:01:35.090Z,10.35
2023-12-28T00:03:38.181Z,10.60
2023-12-28T00:05:41.475Z,10.85
2023-12-28T00:07:44.484Z,11.65
2023-12-28T00:09:47.615Z,10.82
2023-12-28T00:11:52.382Z,10.70
2023-12-28T00:13:55.672Z,11.07
2023-12-28T00:15:58.787Z,10.98
2023-12-28T00:18:02.384Z,11.07
2023-12-28T00:20:06.796Z,11.10
2023-12-28T00:22:09.922Z,10.80
2023-12-28T00:24:12.960Z,10.82
2023-12-28T00:26:16.271Z,10.32
2023-12-28T00:28:20.976Z,11.27
2023-12-28T00:32:27.772Z,10.85
2023-12-28T00:34:30.909Z,10.10
2023-12-28T00:36:34.007Z,10.85
2023-12-28T00:38:38.377Z,11.43
2023-12-28T00:40:41.332Z,10.10
2023-12-28T00:42:44.615Z,10.70
2023-12-28T00:44:49.182Z,10.48
2023-12-28T00:46:52.245Z,10.50
2023-12-28T00:48:55.229Z,11.48
2023-12-28T00:51:00.406Z,10.77
2023-12-28T00:53:03.466Z,10.75
2023-12-28T00:55:07.745Z,11.20
2023-12-28T00:57:10.814Z,11.57
2023-12-28T00:59:13.852Z,11.15
2023-12-28T01:01:19.263Z,10.60
2023-12-28T01:05:27.708Z,9.77
2023-12-28T01:09:36.529Z,10.15
2023-12-28T01:11:40.291Z,9.20
2023-12-28T01:13:43.253Z,10.05
2023-12-28T01:15:46.636Z,8.07
2023-12-28T01:17:51.558Z,7.10
2023-12-28T01:19:54.728Z,7.00
2023-12-28T01:21:57.861Z,7.72
2023-12-28T01:24:00.966Z,7.28
2023-12-28T01:26:03.949Z,7.03
2023-12-28T01:28:07.115Z,6.40
2023-12-28T01:30:10.909Z,6.65
2023-12-28T01:32:14.129Z,6.93
2023-12-28T01:34:18.823Z,6.68
2023-12-28T01:36:23.290Z,5.95
2023-12-28T01:38:26.387Z,6.18
2023-12-28T01:40:29.539Z,5.70
2023-12-28T01:42:33.231Z,6.32
2023-12-28T01:44:36.325Z,6.05
2023-12-28T01:46:39.644Z,6.10
2023-12-28T01:48:44.044Z,5.85
2023-12-28T01:50:48.589Z,5.35
2023-12-28T01:52:52.182Z,6.07
2023-12-28T01:54:55.154Z,5.22
2023-12-28T01:56:59.301Z,5.30
2023-12-28T01:59:02.746Z,5.25
2023-12-28T02:01:06.434Z,5.00
2023-12-28T02:03:17.900Z,4.97
2023-12-28T02:05:22.716Z,4.95
2023-12-28T02:07:27.349Z,4.82
2023-12-28T02:09:30.731Z,5.22
2023-12-28T02:11:33.790Z,4.68
2023-12-28T02:13:36.911Z,4.93
2023-12-28T02:15:41.752Z,4.78
2023-12-28T02:17:52.539Z,4.40
2023-12-28T02:19:56.719Z,4.30
2023-12-28T02:22:01.191Z,4.95
2023-12-28T02:24:06.110Z,4.18
2023-12-28T02:26:10.690Z,3.83
2023-12-28T02:28:13.728Z,4.40
2023-12-28T02:30:19.490Z,4.70
2023-12-28T02:32:28.019Z,3.17
2023-12-28T02:34:36.308Z,4.78
2023-12-28T02:36:45.040Z,4.32
2023-12-28T02:38:50.256Z,4.70
2023-12-28T02:40:54.476Z,4.20
2023-12-28T02:42:59.129Z,4.93
2023-12-28T02:45:02.190Z,4.97
2023-12-28T02:47:05.601Z,4.10
2023-12-28T02:49:08.806Z,3.95
2023-12-28T02:51:12.136Z,3.83
2023-12-28T02:53:15.186Z,3.85
2023-12-28T02:55:18.320Z,4.45
2023-12-28T02:57:21.900Z,4.95
2023-12-28T02:59:26.397Z,4.75
2023-12-28T03:01:30.104Z,4.13
2023-12-28T03:03:33.444Z,4.38
2023-12-28T03:05:36.545Z,5.07
2023-12-28T03:07:40.218Z,4.68
2023-12-28T03:09:43.262Z,3.85
2023-12-28T03:11:46.794Z,4.43
2023-12-28T03:13:49.898Z,4.85
2023-12-28T03:15:54.447Z,5.00
2023-12-28T03:17:57.989Z,5.67
2023-12-28T03:20:02.245Z,5.35
2023-12-28T03:22:05.585Z,4.97
2023-12-28T03:24:08.747Z,5.10
2023-12-28T03:26:11.868Z,5.03
2023-12-28T03:28:15.062Z,5.35
2023-12-28T03:30:18.150Z,5.70
2023-12-28T03:32:22.855Z,5.40
2023-12-28T03:36:31.432Z,5.75
2023-12-28T03:38:34.475Z,5.68
2023-12-28T03:40:37.492Z,5.22
2023-12-28T03:42:40.706Z,5.20
2023-12-28T03:44:43.979Z,5.38
2023-12-28T03:46:46.912Z,5.53
2023-12-28T03:48:51.548Z,5.25
2023-12-28T03:50:54.647Z,6.33
2023-12-28T03:52:57.832Z,5.95
2023-12-28T03:55:01.120Z,5.68
2023-12-28T03:57:04.416Z,5.35
2023-12-28T03:59:08.853Z,5.15
2023-12-28T04:01:12.172Z,5.35
2023-12-28T04:03:15.307Z,5.30
2023-12-28T04:05:20.185Z,5.50
2023-12-28T04:07:23.291Z,6.03
2023-12-28T04:09:26.369Z,6.13
2023-12-28T04:11:29.329Z,5.88
2023-12-28T04:13:32.356Z,5.82
2023-12-28T04:15:35.692Z,5.55
2023-12-28T04:17:39.046Z,6.03
2023-12-28T04:19:42.155Z,6.03
2023-12-28T04:21:47.161Z,5.43
2023-12-28T04:23:50.115Z,6.32
2023-12-28T04:25:53.234Z,5.35
2023-12-28T04:27:57.949Z,5.57
2023-12-28T04:30:01.159Z,5.47
2023-12-28T04:32:04.528Z,5.88
2023-12-28T04:34:07.745Z,5.43
2023-12-28T04:36:10.945Z,5.93
2023-12-28T04:38:16.459Z,5.53
2023-12-28T04:40:19.812Z,6.82
2023-12-28T04:42:22.876Z,5.80
2023-12-28T04:44:27.357Z,0.82
2023-12-28T04:46:30.417Z,6.20
2023-12-28T04:48:33.801Z,5.70
2023-12-28T04:50:39.119Z,4.03
2023-12-28T04:52:42.925Z,5.85
2023-12-28T04:54:47.477Z,5.13
2023-12-28T04:56:50.873Z,6.45
2023-12-28T04:58:53.984Z,7.10
2023-12-28T05:00:57.029Z,7.00
2023-12-28T05:03:00.303Z,4.63
2023-12-28T05:05:03.675Z,6.68
2023-12-28T05:07:06.762Z,6.38
2023-12-28T05:09:09.898Z,6.65
2023-12-28T05:11:14.573Z,6.18
2023-12-28T05:13:17.633Z,6.53
2023-12-28T05:15:21.288Z,7.28
2023-12-28T05:17:24.305Z,5.38
2023-12-28T05:19:27.533Z,3.35
2023-12-28T05:21:30.692Z,5.38
2023-12-28T05:23:33.845Z,6.13
2023-12-28T05:25:37.067Z,5.53
2023-12-28T05:27:44.331Z,6.75
2023-12-28T05:29:47.429Z,6.35
2023-12-28T05:31:50.553Z,2.72
2023-12-28T05:33:53.951Z,5.78
2023-12-28T05:35:57.065Z,6.13
2023-12-28T05:38:00.330Z,6.30
2023-12-28T05:40:04.336Z,6.10
2023-12-28T05:42:07.456Z,4.07
2023-12-28T05:44:12.018Z,4.65
2023-12-28T05:46:15.551Z,6.70
2023-12-28T05:48:18.822Z,5.88
2023-12-28T05:50:22.174Z,5.43
2023-12-28T05:52:25.367Z,5.97
2023-12-28T05:54:28.462Z,5.57
2023-12-28T05:56:31.442Z,4.78
2023-12-28T05:58:34.625Z,5.80
2023-12-28T06:00:40.504Z,5.43
2023-12-28T06:02:43.618Z,2.63
2023-12-28T06:04:47.074Z,4.82
2023-12-28T06:06:50.125Z,7.28
2023-12-28T06:08:53.208Z,6.38
2023-12-28T06:10:56.489Z,6.75
2023-12-28T06:12:59.667Z,6.65
2023-12-28T06:15:03.083Z,7.28
2023-12-28T06:17:08.054Z,4.72
2023-12-28T06:19:12.753Z,6.90
2023-12-28T06:21:16.326Z,6.97
2023-12-28T06:23:19.486Z,7.13
2023-12-28T06:25:22.579Z,8.43
2023-12-28T06:27:25.747Z,6.78
2023-12-28T06:29:29.037Z,7.45
2023-12-28T06:31:32.347Z,7.03
2023-12-28T06:33:37.281Z,11.85
2023-12-28T06:35:40.770Z,3.72
2023-12-28T06:37:44.495Z,11.63
2023-12-28T06:39:47.515Z,10.57
2023-12-28T06:41:50.833Z,9.35
2023-12-28T06:43:53.993Z,9.35
2023-12-28T06:45:57.206Z,7.95
2023-12-28T06:48:00.611Z,7.80
2023-12-28T06:50:06.467Z,7.75
2023-12-28T06:54:12.151Z,7.20
2023-12-28T06:56:15.817Z,7.78
2023-12-28T06:58:19.130Z,7.50
2023-12-28T07:00:22.210Z,8.25
2023-12-28T07:02:25.469Z,9.40
2023-12-28T07:04:30.779Z,7.55
2023-12-28T07:06:35.345Z,7.68
2023-12-28T07:08:38.449Z,7.60
2023-12-28T07:10:41.681Z,7.28
2023-12-28T07:12:44.714Z,9.02
2023-12-28T07:14:47.794Z,7.47
2023-12-28T07:16:50.705Z,8.13
2023-12-28T07:18:54.378Z,7.18
2023-12-28T07:20:57.970Z,9.93
2023-12-28T07:23:02.604Z,8.60
2023-12-28T07:25:07.076Z,6.57
2023-12-28T07:27:10.107Z,7.00
2023-12-28T07:29:13.086Z,5.70
2023-12-28T07:31:25.506Z,8.10
2023-12-28T07:33:28.928Z,8.50
2023-12-28T07:35:32.356Z,7.47
2023-12-28T07:37:35.683Z,8.75
2023-12-28T07:39:40.420Z,8.88
2023-12-28T07:41:43.394Z,7.50
2023-12-28T07:43:46.574Z,8.75
2023-12-28T07:45:49.883Z,9.05
2023-12-28T07:47:53.672Z,8.25
2023-12-28T07:49:57.297Z,8.48
2023-12-28T07:52:00.407Z,8.57
2023-12-28T07:54:03.401Z,9.80
2023-12-28T07:56:08.531Z,26.92
2023-12-28T07:58:11.590Z,6.53
2023-12-28T08:00:15.481Z,12.40
2023-12-28T08:02:21.276Z,12.70
2023-12-28T08:04:24.736Z,7.35
2023-12-28T08:06:27.982Z,6.68
2023-12-28T08:08:31.061Z,10.75
2023-12-28T08:10:34.482Z,11.07
2023-12-28T08:12:39.233Z,11.40
2023-12-28T08:14:42.365Z,10.73
2023-12-28T08:16:45.786Z,12.90
2023-12-28T08:18:49.293Z,9.63
2023-12-28T08:20:52.405Z,10.98
2023-12-28T08:23:05.809Z,9.60
2023-12-28T08:25:18.535Z,6.53
2023-12-28T08:27:21.778Z,6.97
2023-12-28T08:29:26.430Z,15.65
2023-12-28T08:31:31.336Z,15.55
2023-12-28T08:33:35.754Z,10.82
2023-12-28T08:35:38.830Z,10.07
2023-12-28T08:37:44.027Z,9.98
2023-12-28T08:39:48.229Z,10.23
2023-12-28T08:41:51.302Z,9.55
2023-12-28T08:43:57.232Z,8.82
2023-12-28T08:46:01.980Z,6.60
2023-12-28T08:48:06.330Z,8.27
2023-12-28T08:50:10.889Z,4.47
2023-12-28T08:52:14.056Z,8.27
2023-12-28T08:54:17.342Z,14.82
2023-12-28T08:56:22.199Z,16.65
2023-12-28T08:58:25.372Z,16.25
2023-12-28T09:00:28.500Z,6.63
2023-12-28T09:02:33.109Z,11.13
2023-12-28T09:04:36.214Z,3.90
2023-12-28T09:06:39.588Z,8.60
2023-12-28T09:08:44.267Z,8.88
2023-12-28T09:10:47.409Z,3.60
2023-12-28T09:12:50.384Z,15.25
2023-12-28T09:14:54.171Z,9.50
2023-12-28T09:16:57.150Z,11.43
2023-12-28T09:19:02.020Z,9.70
2023-12-28T09:21:05.290Z,7.68
2023-12-28T09:23:08.911Z,9.93
2023-12-28T09:25:12.055Z,9.05
2023-12-28T09:27:15.190Z,7.88
2023-12-28T09:29:18.215Z,7.38
2023-12-28T09:31:21.406Z,9.57
2023-12-28T09:33:24.569Z,10.88
2023-12-28T09:35:29.264Z,11.23
2023-12-28T09:37:32.561Z,8.95
2023-12-28T09:39:35.568Z,9.48
2023-12-28T09:41:44.613Z,9.25
2023-12-28T09:43:57.511Z,8.65
2023-12-28T09:46:01.764Z,9.10
2023-12-28T09:48:06.226Z,8.55
2023-12-28T09:50:09.839Z,10.25
2023-12-28T09:52:14.589Z,10.45
2023-12-28T09:54:19.684Z,11.07
2023-12-28T09:56:23.162Z,10.05
2023-12-28T09:58:27.089Z,8.90
2023-12-28T10:00:30.627Z,8.93
2023-12-28T10:02:37.105Z,10.10
2023-12-28T10:04:40.500Z,8.18
2023-12-28T10:06:43.830Z,9.40
2023-12-28T10:08:49.607Z,8.38
2023-12-28T10:12:59.440Z,9.65
2023-12-28T10:15:03.096Z,11.50
2023-12-28T10:17:06.941Z,7.95
2023-12-28T10:19:10.038Z,8.90
2023-12-28T10:21:13.686Z,10.02
2023-12-28T10:23:16.729Z,10.35
2023-12-28T10:25:21.341Z,9.00
2023-12-28T10:27:24.642Z,9.13
2023-12-28T10:29:28.015Z,7.20
2023-12-28T10:31:31.516Z,2.78
2023-12-28T10:33:38.809Z,8.57
2023-12-28T10:35:42.521Z,6.57
2023-12-28T10:37:46.306Z,8.98
2023-12-28T10:39:53.380Z,9.52
2023-12-28T10:42:01.345Z,8.05
2023-12-28T10:44:09.144Z,8.60
2023-12-28T10:46:23.452Z,8.48
2023-12-28T10:48:35.827Z,9.93
2023-12-28T10:50:42.426Z,9.02
2023-12-28T10:52:51.259Z,5.93
2023-12-28T10:55:02.288Z,6.22
2023-12-28T10:57:13.599Z,4.78
2023-12-28T10:59:25.856Z,9.82
2023-12-28T11:01:33.353Z,6.38
2023-12-28T11:03:39.490Z,7.68
2023-12-28T11:05:45.214Z,5.95
2023-12-28T11:07:51.170Z,6.45
2023-12-28T11:09:56.576Z,4.85
2023-12-28T11:14:09.034Z,8.30
2023-12-28T11:16:13.976Z,7.72
2023-12-28T11:18:17.255Z,7.80
2023-12-28T11:20:20.733Z,8.98
2023-12-28T11:22:25.178Z,8.07
2023-12-28T11:24:29.493Z,8.25
2023-12-28T11:26:32.864Z,7.57
2023-12-28T11:28:36.083Z,8.70
2023-12-28T11:30:43.000Z,5.38
2023-12-28T11:32:46.387Z,7.45
2023-12-28T11:34:59.433Z,7.78
2023-12-28T11:37:09.747Z,7.63
2023-12-28T11:39:12.772Z,9.55
2023-12-28T11:41:18.364Z,10.23
2023-12-28T11:45:25.152Z,10.43
2023-12-28T11:47:29.917Z,10.25
2023-12-28T11:49:33.158Z,9.50
2023-12-28T11:51:41.166Z,10.52
2023-12-28T11:53:47.712Z,10.82
2023-12-28T11:55:50.965Z,9.85
2023-12-28T11:57:54.073Z,28.58
2023-12-28T11:59:59.535Z,10.02
2023-12-28T12:02:03.961Z,27.15
2023-12-28T12:04:09.523Z,15.70
2023-12-28T12:06:12.815Z,7.45
2023-12-28T12:08:16.853Z,9.20
2023-12-28T12:10:20.208Z,17.73
2023-12-28T12:12:23.216Z,10.90
2023-12-28T12:14:26.503Z,11.75
2023-12-28T12:16:30.625Z,10.40
2023-12-28T12:18:34.825Z,12.00
2023-12-28T12:20:40.541Z,21.95
2023-12-28T12:24:49.001Z,15.25
2023-12-28T12:26:53.212Z,19.65
2023-12-28T12:28:56.420Z,13.73
2023-12-28T12:31:02.856Z,8.35
2023-12-28T12:33:06.940Z,8.40
2023-12-28T12:35:12.453Z,8.88
2023-12-28T12:37:17.818Z,10.93
2023-12-28T12:39:21.125Z,8.75
2023-12-28T12:41:24.158Z,8.82
2023-12-28T12:43:28.537Z,10.10
2023-12-28T12:45:31.635Z,19.92
2023-12-28T12:47:37.948Z,10.23
2023-12-28T12:49:41.964Z,9.55
2023-12-28T12:51:47.088Z,8.68
2023-12-28T12:53:51.656Z,28.25
2023-12-28T12:55:57.099Z,12.15
2023-12-28T12:58:00.262Z,11.50
2023-12-28T13:00:07.403Z,17.67
2023-12-28T13:02:10.708Z,9.65
2023-12-28T13:04:14.054Z,24.02
2023-12-28T13:06:17.429Z,30.08
2023-12-28T13:08:20.683Z,82.65
2023-12-28T13:10:25.716Z,47.67
2023-12-28T13:12:29.128Z,30.05
2023-12-28T13:14:32.193Z,22.77
2023-12-28T13:16:35.441Z,33.40
2023-12-28T13:18:38.556Z,11.85
2023-12-28T13:20:41.807Z,11.35
2023-12-28T13:22:44.853Z,13.00
2023-12-28T13:24:47.983Z,30.65
2023-12-28T13:26:52.686Z,34.00
2023-12-28T13:28:55.928Z,34.00
2023-12-28T13:30:59.043Z,33.97
2023-12-28T13:33:02.529Z,38.97
2023-12-28T13:35:06.530Z,29.20
2023-12-28T13:37:09.674Z,41.38
2023-12-28T13:39:15.809Z,36.05
2023-12-28T13:41:18.979Z,22.58
2023-12-28T13:43:23.424Z,26.75
2023-12-28T13:45:26.527Z,21.33
2023-12-28T13:47:29.737Z,26.55
2023-12-28T13:49:32.919Z,15.65
2023-12-28T13:51:36.177Z,11.32
2023-12-28T13:53:42.385Z,19.75
2023-12-28T13:55:45.512Z,17.38
2023-12-28T13:57:48.653Z,9.85
2023-12-28T13:59:54.960Z,14.80
2023-12-28T14:01:59.786Z,11.32
2023-12-28T14:04:04.451Z,8.30
2023-12-28T14:06:07.800Z,9.70
2023-12-28T14:08:11.134Z,9.80
2023-12-28T14:10:14.304Z,8.80
2023-12-28T14:12:17.367Z,9.75
2023-12-28T14:14:21.975Z,9.35
2023-12-28T14:16:26.606Z,9.15
2023-12-28T14:18:29.844Z,8.60
2023-12-28T14:20:32.938Z,9.50
2023-12-28T14:22:36.644Z,9.85
2023-12-28T14:24:40.324Z,9.75
2023-12-28T14:26:45.355Z,10.13
2023-12-28T14:28:48.991Z,9.45
2023-12-28T14:30:52.763Z,10.10
2023-12-28T14:32:58.104Z,9.40
2023-12-28T14:37:06.486Z,9.43
2023-12-28T14:39:10.672Z,9.45
2023-12-28T14:41:14.004Z,9.18
2023-12-28T14:43:17.119Z,9.90
2023-12-28T14:45:20.140Z,9.70
2023-12-28T14:47:23.271Z,11.48
2023-12-28T14:49:28.099Z,11.55
2023-12-28T14:51:31.646Z,88.78
2023-12-28T14:53:34.626Z,43.00
2023-12-28T14:55:37.697Z,25.83
2023-12-28T14:57:40.691Z,30.17
2023-12-28T14:59:43.824Z,20.38
2023-12-28T15:01:47.581Z,19.67
2023-12-28T15:03:50.992Z,40.83
2023-12-28T15:05:55.529Z,17.63
2023-12-28T15:07:58.916Z,14.77
2023-12-28T15:10:02.962Z,17.13
2023-12-28T15:12:07.456Z,48.28
2023-12-28T15:14:10.907Z,30.30
2023-12-28T15:16:15.961Z,67.05
2023-12-28T15:18:19.544Z,46.22
2023-12-28T15:20:24.556Z,36.88
2023-12-28T15:22:29.837Z,23.17
2023-12-28T15:24:33.664Z,10.15
2023-12-28T15:26:37.685Z,14.05
2023-12-28T15:28:41.773Z,17.05
2023-12-28T15:30:44.948Z,12.98
2023-12-28T15:32:48.231Z,13.77
2023-12-28T15:34:51.379Z,13.73
2023-12-28T15:36:54.540Z,11.55
2023-12-28T15:38:59.045Z,11.65
2023-12-28T15:41:02.028Z,13.20
2023-12-28T15:43:05.351Z,12.30
2023-12-28T15:45:09.251Z,12.45
2023-12-28T15:47:12.261Z,13.05
2023-12-28T15:49:15.506Z,11.75
2023-12-28T15:51:18.443Z,12.50
2023-12-28T15:53:21.416Z,11.70
2023-12-28T15:55:25.974Z,13.60
2023-12-28T15:57:29.025Z,22.73
2023-12-28T15:59:31.973Z,23.48
2023-12-28T16:01:35.143Z,64.75
2023-12-28T16:03:38.535Z,61.20
2023-12-28T16:05:43.594Z,38.47
2023-12-28T16:07:48.546Z,24.85
2023-12-28T16:09:51.633Z,26.25
2023-12-28T16:11:56.160Z,31.45
2023-12-28T16:13:59.896Z,25.53
2023-12-28T16:16:03.673Z,20.17
2023-12-28T16:18:08.480Z,19.77
2023-12-28T16:20:12.926Z,21.23
2023-12-28T16:22:17.674Z,14.95
2023-12-28T16:24:21.183Z,12.25
2023-12-28T16:26:24.263Z,14.18
2023-12-28T16:28:28.762Z,17.20
2023-12-28T16:30:31.903Z,15.77
2023-12-28T16:32:34.882Z,16.58
2023-12-28T16:34:38.244Z,15.57
2023-12-28T16:36:41.397Z,16.27
2023-12-28T16:38:44.540Z,7.45
2023-12-28T16:40:47.426Z,16.75
2023-12-28T16:42:50.646Z,12.25
2023-12-28T16:44:55.355Z,13.80
2023-12-28T16:46:59.672Z,14.32
2023-12-28T16:49:02.845Z,13.20
2023-12-28T16:51:06.517Z,15.05
2023-12-28T16:53:09.522Z,14.55
2023-12-28T16:55:12.641Z,20.63
2023-12-28T16:57:15.774Z,21.40
2023-12-28T16:59:18.809Z,14.38
2023-12-28T17:01:23.338Z,13.60
2023-12-28T17:03:26.509Z,12.97
2023-12-28T17:05:30.374Z,15.13
2023-12-28T17:07:33.625Z,35.20
2023-12-28T17:09:36.876Z,31.33
2023-12-28T17:11:44.850Z,19.00
2023-12-28T17:13:48.387Z,17.63
2023-12-28T17:15:54.081Z,15.38
2023-12-28T17:17:59.610Z,13.73
2023-12-28T17:22:09.624Z,16.92
2023-12-28T17:24:19.302Z,17.08
2023-12-28T17:26:26.617Z,16.75
2023-12-28T17:28:36.301Z,16.23
2023-12-28T17:30:39.647Z,16.85
2023-12-28T17:32:44.840Z,18.63
2023-12-28T17:34:50.935Z,18.58
2023-12-28T17:36:54.618Z,19.60
2023-12-28T17:38:59.978Z,15.55
2023-12-28T17:41:03.912Z,15.60
2023-12-28T17:43:15.102Z,15.68
2023-12-28T17:45:23.868Z,18.02
2023-12-28T17:47:30.566Z,15.13
2023-12-28T17:49:34.492Z,48.30
2023-12-28T17:51:40.374Z,24.80
2023-12-28T17:53:44.012Z,15.63
2023-12-28T17:55:47.030Z,15.85
2023-12-28T17:57:50.794Z,15.65
2023-12-28T17:59:53.833Z,13.27
2023-12-28T18:01:56.893Z,16.15
2023-12-28T18:03:59.937Z,15.43
2023-12-28T18:06:03.526Z,18.15
2023-12-28T18:08:08.732Z,26.13
2023-12-28T18:10:11.961Z,26.67
2023-12-28T18:12:15.213Z,29.33
2023-12-28T18:14:18.333Z,29.15
2023-12-28T18:16:23.774Z,29.98
2023-12-28T18:18:27.063Z,17.42
2023-12-28T18:20:30.098Z,16.20
2023-12-28T18:22:33.530Z,14.27
2023-12-28T18:24:38.100Z,15.20
2023-12-28T18:26:43.645Z,14.17
2023-12-28T18:28:46.569Z,15.25
2023-12-28T18:30:49.808Z,14.90
2023-12-28T18:32:53.277Z,12.15
2023-12-28T18:34:56.711Z,16.10
2023-12-28T18:36:59.784Z,20.55
2023-12-28T18:39:02.926Z,21.45
2023-12-28T18:41:07.355Z,35.40
2023-12-28T18:43:10.572Z,31.05
2023-12-28T18:45:13.693Z,16.63
2023-12-28T18:47:17.025Z,16.45
2023-12-28T18:49:20.081Z,14.60
2023-12-28T18:51:23.294Z,15.27
2023-12-28T18:53:26.383Z,12.65
2023-12-28T18:55:29.552Z,12.82
2023-12-28T18:57:34.180Z,11.15
2023-12-28T18:59:37.320Z,12.88
2023-12-28T19:01:40.316Z,13.32
2023-12-28T19:03:47.198Z,13.43
2023-12-28T19:05:51.315Z,9.95
2023-12-28T19:07:54.392Z,12.20
2023-12-28T19:09:57.500Z,12.45
2023-12-28T19:12:00.548Z,11.80
2023-12-28T19:14:05.121Z,11.73
2023-12-28T19:16:08.467Z,13.67
2023-12-28T19:18:16.747Z,13.02
2023-12-28T19:22:23.051Z,13.43
2023-12-28T19:24:26.144Z,12.55
2023-12-28T19:26:29.399Z,11.77
2023-12-28T19:28:32.997Z,12.48
2023-12-28T19:30:37.707Z,11.68
2023-12-28T19:32:41.069Z,11.93
2023-12-28T19:34:44.168Z,11.25
2023-12-28T19:36:47.532Z,11.85
2023-12-28T19:38:50.654Z,12.75
2023-12-28T19:40:53.792Z,16.00
2023-12-28T19:42:56.856Z,150.43
2023-12-28T19:45:00.041Z,78.15
2023-12-28T19:47:05.680Z,46.75
2023-12-28T19:49:08.749Z,39.15
2023-12-28T19:51:12.010Z,38.65
2023-12-28T19:53:19.868Z,28.65
2023-12-28T19:55:23.540Z,39.08
2023-12-28T19:57:26.814Z,34.10
2023-12-28T19:59:29.879Z,26.42
2023-12-28T20:01:32.994Z,31.85
2023-12-28T20:03:38.689Z,32.92
2023-12-28T20:05:42.165Z,27.92
2023-12-28T20:07:45.155Z,22.33
2023-12-28T20:09:48.429Z,17.90
2023-12-28T20:11:51.565Z,19.38
2023-12-28T20:13:54.963Z,22.35
2023-12-28T20:15:58.001Z,23.63
2023-12-28T20:18:02.103Z,16.55
2023-12-28T20:20:08.442Z,14.07
2023-12-28T20:22:11.761Z,14.52
2023-12-28T20:24:15.027Z,14.10
2023-12-28T20:26:18.096Z,15.30
2023-12-28T20:28:21.206Z,15.55
2023-12-28T20:30:24.429Z,20.50
2023-12-28T20:32:28.166Z,17.23
2023-12-28T20:34:31.240Z,16.42
2023-12-28T20:36:35.760Z,14.52
2023-12-28T20:38:39.339Z,14.70
2023-12-28T20:40:42.302Z,14.20
2023-12-28T20:42:45.356Z,15.07
2023-12-28T20:44:48.400Z,14.75
2023-12-28T20:46:51.634Z,16.00
2023-12-28T20:48:55.517Z,14.90
2023-12-28T20:50:58.718Z,14.00
2023-12-28T20:53:03.362Z,13.13
2023-12-28T20:55:07.172Z,14.70
2023-12-28T20:57:10.263Z,14.38
2023-12-28T20:59:13.280Z,13.38
2023-12-28T21:01:16.567Z,13.70
2023-12-28T21:03:19.790Z,15.38
2023-12-28T21:05:22.869Z,13.88
2023-12-28T21:07:26.047Z,12.98
2023-12-28T21:09:30.939Z,12.68
2023-12-28T21:11:34.054Z,13.35
2023-12-28T21:13:40.615Z,13.95
2023-12-28T21:15:44.548Z,13.20
2023-12-28T21:17:47.797Z,14.65
2023-12-28T21:19:51.698Z,12.45
2023-12-28T21:21:54.741Z,12.32
2023-12-28T21:23:57.761Z,13.10
2023-12-28T21:26:02.406Z,13.98
2023-12-28T21:28:06.011Z,13.07
2023-12-28T21:30:10.968Z,13.68
2023-12-28T21:32:15.062Z,13.73
2023-12-28T21:34:18.198Z,14.10
2023-12-28T21:36:21.357Z,13.85
2023-12-28T21:38:24.420Z,14.15
2023-12-28T21:40:28.503Z,14.95
2023-12-28T21:42:33.326Z,14.30
2023-12-28T21:44:36.385Z,16.65
2023-12-28T21:46:42.039Z,13.52
2023-12-28T21:48:45.429Z,15.43
2023-12-28T21:50:49.089Z,14.07
2023-12-28T21:52:53.625Z,14.57
2023-12-28T21:54:56.777Z,16.13
2023-12-28T21:56:59.984Z,13.63
2023-12-28T21:59:05.505Z,16.48
2023-12-28T22:03:11.402Z,16.52
2023-12-28T22:05:14.649Z,15.90
2023-12-28T22:07:17.904Z,14.88
2023-12-28T22:09:21.897Z,14.02
2023-12-28T22:11:24.785Z,15.50
2023-12-28T22:13:27.949Z,16.65
2023-12-28T22:15:32.445Z,16.85
2023-12-28T22:17:35.564Z,17.20
2023-12-28T22:19:38.583Z,18.35
2023-12-28T22:21:41.681Z,17.08
2023-12-28T22:23:45.469Z,17.33
2023-12-28T22:25:48.557Z,17.63
2023-12-28T22:27:51.581Z,17.13
2023-12-28T22:29:54.724Z,16.95
2023-12-28T22:31:59.269Z,19.00
2023-12-28T22:34:02.557Z,17.27
2023-12-28T22:36:06.434Z,15.60
2023-12-28T22:38:09.613Z,18.25
2023-12-28T22:40:13.891Z,14.90
2023-12-28T22:42:19.000Z,17.85
2023-12-28T22:44:21.939Z,16.02
2023-12-28T22:46:25.074Z,16.10
2023-12-28T22:48:29.528Z,17.00
2023-12-28T22:50:33.836Z,15.57
2023-12-28T22:52:37.445Z,17.30
2023-12-28T22:54:40.518Z,15.73
2023-12-28T22:56:43.515Z,15.52
2023-12-28T22:58:46.536Z,16.42
2023-12-28T23:00:49.753Z,16.67
2023-12-28T23:02:53.222Z,15.77
2023-12-28T23:04:57.966Z,17.23
2023-12-28T23:07:01.207Z,17.47
2023-12-28T23:09:05.892Z,15.98
2023-12-28T23:11:08.924Z,16.77
2023-12-28T23:13:12.463Z,15.40
2023-12-28T23:15:15.565Z,18.02
2023-12-28T23:17:18.575Z,16.05
2023-12-28T23:19:21.784Z,17.27
2023-12-28T23:21:26.304Z,15.57
2023-12-28T23:23:29.330Z,17.92
2023-12-28T23:25:32.375Z,16.30
2023-12-28T23:27:35.431Z,17.55
2023-12-28T23:29:41.095Z,18.00
2023-12-28T23:31:44.271Z,16.10
2023-12-28T23:33:47.549Z,15.75
2023-12-28T23:35:51.404Z,15.38
2023-12-28T23:37:55.847Z,14.43
2023-12-28T23:39:59.018Z,16.77
2023-12-28T23:42:02.299Z,16.65
2023-12-28T23:44:06.502Z,17.08
2023-12-28T23:46:09.765Z,16.55
2023-12-28T23:48:13.087Z,17.73
2023-12-28T23:50:16.285Z,16.13
2023-12-28T23:52:19.419Z,15.25
2023-12-28T23:54:24.157Z,15.38
2023-12-28T23:56:27.258Z,15.88
2023-12-28T23:58:30.226Z,17.67
